Time;durP1;ratioP1;P1;durP2;ratioP2;P2;SDS_P1;SDS_P2;PMS_P1;PMS_P2;Temp;Humidity;BMP_temperature;BMP_pressure;BME280_temperature;BME280_humidity;BME280_pressure;Samples;Min_cycle;Max_cycle;Signal;HPM_P1;HPM_P2
2023/10/15 00:00:01;;;;;;;4.47;1.08;;;;;;;7.12;100.00;96044.66;1027121;28;20089;-78
2023/10/15 00:00:31;;;;;;;1.00;0.90;;;;;;;7.06;100.00;96034.09;1022955;29;20345;-78
2023/10/15 00:01:05;;;;;;;0.30;0.30;;;;;;;7.09;100.00;96040.69;1023037;29;20038;-78
2023/10/15 00:01:36;;;;;;;0.57;0.20;;;;;;;7.08;100.00;96037.28;1023277;28;20122;-77
2023/10/15 00:02:06;;;;;;;0.00;0.00;;;;;;;7.08;100.00;96039.09;1019668;29;20792;-77
2023/10/15 00:02:37;;;;;;;0.47;0.13;;;;;;;7.08;100.00;96041.72;1014047;29;20414;-77
2023/10/15 00:03:07;;;;;;;0.65;0.47;;;;;;;7.07;100.00;96042.72;1014863;29;20032;-77
2023/10/15 00:03:38;;;;;;;0.40;0.38;;;;;;;7.07;100.00;96040.91;1015003;29;20039;-77
2023/10/15 00:04:08;;;;;;;0.32;0.32;;;;;;;7.06;100.00;96036.72;1015487;29;20414;-76
2023/10/15 00:04:39;;;;;;;0.35;0.35;;;;;;;7.07;100.00;96038.28;1018829;29;20035;-78
2023/10/15 00:05:15;;;;;;;0.28;0.28;;;;;;;7.04;100.00;96037.97;1015211;29;20032;-76
2023/10/15 00:05:45;;;;;;;0.28;0.28;;;;;;;7.02;100.00;96034.81;1019101;29;20134;-77
2023/10/15 00:06:16;;;;;;;0.22;0.20;;;;;;;7.07;100.00;96037.50;1019659;29;20753;-76
2023/10/15 00:06:46;;;;;;;0.28;0.28;;;;;;;7.08;100.00;96041.72;1023132;29;20027;-77
2023/10/15 00:07:16;;;;;;;0.20;0.20;;;;;;;7.07;100.00;96040.91;1022056;29;20031;-77
2023/10/15 00:07:48;;;;;;;0.00;0.00;;;;;;;7.02;100.00;96040.03;1019049;29;20027;-77
2023/10/15 00:08:19;;;;;;;1.98;1.00;;;;;;;7.06;100.00;96041.13;1023142;29;20361;-77
2023/10/15 00:08:50;;;;;;;0.10;0.10;;;;;;;7.03;100.00;96039.00;1019171;29;20783;-77
2023/10/15 00:09:21;;;;;;;0.20;0.20;;;;;;;6.97;100.00;96032.09;1022519;29;20047;-76
2023/10/15 00:09:51;;;;;;;0.20;0.20;;;;;;;7.01;100.00;96034.03;1018850;29;20271;-77
2023/10/15 00:10:22;;;;;;;0.10;0.10;;;;;;;7.03;100.00;96036.38;1014899;29;20145;-76
2023/10/15 00:10:53;;;;;;;0.10;0.10;;;;;;;7.02;100.00;96026.97;1014999;29;20664;-77
2023/10/15 00:11:23;;;;;;;0.43;0.30;;;;;;;7.04;100.00;96033.56;1014999;29;20314;-77
2023/10/15 00:11:54;;;;;;;0.47;0.47;;;;;;;7.04;100.00;96030.13;1018999;29;20027;-76
2023/10/15 00:12:24;;;;;;;3.92;0.75;;;;;;;6.97;100.00;96016.44;1022571;29;20724;-77
2023/10/15 00:12:55;;;;;;;0.20;0.20;;;;;;;7.04;100.00;96030.94;1018648;29;20083;-77
2023/10/15 00:13:26;;;;;;;1.65;1.35;;;;;;;7.09;100.00;96032.84;1018833;29;20028;-77
2023/10/15 00:13:56;;;;;;;0.30;0.30;;;;;;;7.04;100.00;96027.53;1019322;29;20319;-77
2023/10/15 00:14:27;;;;;;;0.10;0.10;;;;;;;7.09;100.00;96030.25;1019282;29;20031;-76
2023/10/15 00:14:57;;;;;;;0.35;0.35;;;;;;;7.09;100.00;96032.84;1022893;29;20828;-77
2023/10/15 00:15:31;;;;;;;0.10;0.10;;;;;;;7.06;100.00;96028.09;1018987;29;20027;-78
2023/10/15 00:16:02;;;;;;;0.20;0.20;;;;;;;7.11;100.00;96033.41;1018902;29;20027;-78
2023/10/15 00:16:33;;;;;;;0.50;0.50;;;;;;;7.14;100.00;96035.53;1022936;29;20274;-77
2023/10/15 00:17:05;;;;;;;0.65;0.45;;;;;;;7.16;100.00;96036.09;1022399;29;20385;-77
2023/10/15 00:17:36;;;;;;;3.38;2.38;;;;;;;7.17;100.00;96035.06;1019706;29;20023;-76
2023/10/15 00:18:09;;;;;;;0.43;0.43;;;;;;;7.17;100.00;96035.06;1015588;29;20663;-77
2023/10/15 00:18:40;;;;;;;0.47;0.15;;;;;;;7.16;100.00;96033.50;1022921;29;20053;-77
2023/10/15 00:19:11;;;;;;;0.10;0.10;;;;;;;7.15;100.00;96042.38;1015107;29;20766;-77
2023/10/15 00:19:42;;;;;;;0.20;0.20;;;;;;;7.10;100.00;96039.66;1019509;29;20023;-77
2023/10/15 00:20:22;;;;;;;0.00;0.00;;;;;;;7.09;100.00;96038.06;1018865;29;20024;-77
2023/10/15 00:20:54;;;;;;;0.43;0.30;;;;;;;7.20;100.00;96044.25;1021960;28;20083;-76
2023/10/15 00:21:26;;;;;;;0.00;0.00;;;;;;;7.15;100.00;96037.13;1025239;28;20270;-76
2023/10/15 00:21:56;;;;;;;0.30;0.30;;;;;;;7.18;100.00;96047.13;1024700;28;20255;-76
2023/10/15 00:22:27;;;;;;;0.80;0.30;;;;;;;7.16;100.00;96037.94;1024435;28;20258;-76
2023/10/15 00:23:04;;;;;;;0.10;0.10;;;;;;;7.18;100.00;96049.72;1022713;29;20027;-78
2023/10/15 00:23:36;;;;;;;0.10;0.10;;;;;;;7.20;100.00;96045.03;1018923;29;20020;-76
2023/10/15 00:24:10;;;;;;;0.00;0.00;;;;;;;7.20;100.00;96047.66;1011043;29;20273;-77
2023/10/15 00:24:41;;;;;;;0.32;0.32;;;;;;;7.16;100.00;96041.31;1011259;29;20283;-76
2023/10/15 00:25:15;;;;;;;0.20;0.20;;;;;;;7.17;100.00;96045.50;1018698;29;20264;-76
2023/10/15 00:25:48;;;;;;;0.38;0.35;;;;;;;7.18;100.00;96041.91;1019971;29;20062;-77
2023/10/15 00:26:21;;;;;;;0.20;0.20;;;;;;;7.20;100.00;96050.28;1020279;29;20260;-77
2023/10/15 00:26:51;;;;;;;2.63;0.57;;;;;;;7.18;100.00;96047.13;1014847;29;20256;-76
2023/10/15 00:27:22;;;;;;;0.20;0.20;;;;;;;7.17;100.00;96045.50;1015137;29;20272;-76
2023/10/15 00:27:52;;;;;;;0.38;0.32;;;;;;;7.16;100.00;96043.94;1015144;29;20017;-77
2023/10/15 00:28:23;;;;;;;0.15;0.15;;;;;;;7.13;100.00;96041.78;1019233;28;20019;-77
2023/10/15 00:28:54;;;;;;;0.93;0.50;;;;;;;7.17;100.00;96050.72;1019181;29;20389;-77
2023/10/15 00:29:25;;;;;;;0.00;0.00;;;;;;;7.06;100.00;96031.50;1014846;29;20016;-77
2023/10/15 00:29:55;;;;;;;0.00;0.00;;;;;;;7.14;100.00;96047.78;1011317;29;20024;-77
2023/10/15 00:30:32;;;;;;;0.30;0.30;;;;;;;7.13;100.00;96054.06;1014035;29;20035;-78
2023/10/15 00:31:08;;;;;;;0.52;0.50;;;;;;;7.08;100.00;96044.31;1015082;29;20016;-76
2023/10/15 00:31:38;;;;;;;0.10;0.10;;;;;;;7.05;100.00;96042.97;1022342;28;20779;-76
2023/10/15 00:32:09;;;;;;;0.20;0.20;;;;;;;7.05;100.00;96036.97;1026004;28;20289;-78
2023/10/15 00:32:42;;;;;;;0.10;0.10;;;;;;;7.07;100.00;96040.91;1026477;28;20713;-78
2023/10/15 00:33:14;;;;;;;9.52;1.10;;;;;;;7.07;100.00;96040.09;1022407;29;20031;-77
2023/10/15 00:33:46;;;;;;;0.15;0.15;;;;;;;7.06;100.00;96043.75;1017105;29;20559;-76
2023/10/15 00:34:17;;;;;;;0.22;0.20;;;;;;;7.06;100.00;96041.13;1014443;29;20319;-77
2023/10/15 00:34:49;;;;;;;0.45;0.43;;;;;;;7.03;100.00;96037.16;1015575;29;20268;-77
2023/10/15 00:35:19;;;;;;;0.10;0.10;;;;;;;7.05;100.00;96042.19;1019240;29;20128;-76
2023/10/15 00:35:54;;;;;;;0.75;0.75;;;;;;;7.00;100.00;96035.03;1022734;29;20271;-76
2023/10/15 00:36:25;;;;;;;0.32;0.32;;;;;;;7.01;100.00;96036.63;1018894;29;20023;-77
2023/10/15 00:36:57;;;;;;;0.77;0.60;;;;;;;6.97;100.00;96035.47;1026835;28;20274;-78
2023/10/15 00:37:27;;;;;;;0.47;0.47;;;;;;;7.05;100.00;96050.00;1022803;29;20663;-76
2023/10/15 00:37:57;;;;;;;0.00;0.00;;;;;;;7.05;100.00;96052.59;1022469;29;20027;-77
2023/10/15 00:38:28;;;;;;;0.03;0.03;;;;;;;7.03;100.00;96044.22;1018833;29;20065;-77
2023/10/15 00:38:58;;;;;;;0.82;0.70;;;;;;;7.02;100.00;96050.47;1015490;29;20043;-77
2023/10/15 00:39:30;;;;;;;0.10;0.10;;;;;;;6.95;100.00;96044.59;1023514;29;20374;-77
2023/10/15 00:40:00;;;;;;;0.05;0.05;;;;;;;6.99;100.00;96048.31;1018851;29;20202;-77
2023/10/15 00:40:31;;;;;;;0.00;0.00;;;;;;;6.93;100.00;96049.22;1012944;29;20273;-78
2023/10/15 00:41:07;;;;;;;3.10;0.15;;;;;;;6.98;100.00;96054.56;1011288;29;20409;-77
2023/10/15 00:41:37;;;;;;;0.70;0.63;;;;;;;6.98;100.00;96049.34;1008250;29;20422;-77
2023/10/15 00:42:08;;;;;;;2.25;0.63;;;;;;;6.93;100.00;96044.00;1017807;28;20450;-77
2023/10/15 00:42:39;;;;;;;0.10;0.10;;;;;;;6.96;100.00;96039.13;1023162;28;20727;-77
2023/10/15 00:43:10;;;;;;;0.65;0.65;;;;;;;6.95;100.00;96047.19;1026596;28;20627;-77
2023/10/15 00:43:56;;;;;;;0.10;0.10;;;;;;;6.93;100.00;96044.81;1022766;29;20295;-76
2023/10/15 00:44:26;;;;;;;0.75;0.75;;;;;;;6.95;100.00;96053.19;1025025;28;20039;-77
2023/10/15 00:44:57;;;;;;;0.10;0.10;;;;;;;6.90;100.00;96041.88;1022962;29;20270;-76
2023/10/15 00:45:31;;;;;;;0.00;0.00;;;;;;;6.84;100.00;96039.19;1014701;29;20103;-76
2023/10/15 00:46:10;;;;;;;0.00;0.00;;;;;;;6.88;100.00;96047.34;1011032;29;20117;-77
2023/10/15 00:46:40;;;;;;;0.25;0.25;;;;;;;6.85;100.00;96053.78;1023025;29;20405;-77
2023/10/15 00:47:15;;;;;;;0.10;0.10;;;;;;;6.79;100.00;96044.28;1020289;28;20315;-77
2023/10/15 00:48:00;;;;;;;0.10;0.10;;;;;;;6.78;100.00;96042.69;1020729;29;20050;-78
2023/10/15 00:48:33;;;;;;;0.45;0.45;;;;;;;6.78;100.00;96047.91;1014902;29;20272;-76
2023/10/15 00:49:09;;;;;;;0.38;0.38;;;;;;;6.77;100.00;96050.75;1014987;29;20280;-77
2023/10/15 00:49:41;;;;;;;0.00;0.00;;;;;;;6.77;100.00;96051.56;1022726;29;20266;-77
2023/10/15 00:50:12;;;;;;;0.00;0.00;;;;;;;6.74;100.00;96051.19;1022898;29;20286;-76
2023/10/15 00:50:43;;;;;;;0.10;0.10;;;;;;;6.77;100.00;96055.94;1018978;29;20803;-77
2023/10/15 00:51:16;;;;;;;0.80;0.80;;;;;;;6.70;100.00;96044.88;1011517;29;20032;-78
2023/10/15 00:51:47;;;;;;;3.55;1.25;;;;;;;6.68;100.00;96045.09;1018958;29;20291;-77
2023/10/15 00:52:19;;;;;;;0.10;0.10;;;;;;;6.73;100.00;96060.84;1014605;29;20809;-76
2023/10/15 00:52:50;;;;;;;0.00;0.00;;;;;;;6.71;100.00;96047.25;1014483;29;20035;-78
2023/10/15 00:53:22;;;;;;;0.28;0.28;;;;;;;6.73;100.00;96054.84;1003509;29;20346;-77
2023/10/15 00:53:54;;;;;;;0.85;0.32;;;;;;;6.71;100.00;96055.06;1014877;29;20196;-76
2023/10/15 00:54:24;;;;;;;3.03;0.25;;;;;;;6.68;100.00;96050.31;1014897;29;20267;-77
2023/10/15 00:54:55;;;;;;;2.45;1.60;;;;;;;6.69;100.00;96059.72;1011122;29;20324;-77
2023/10/15 00:55:27;;;;;;;0.43;0.35;;;;;;;6.62;100.00;96048.63;1007209;29;20060;-77
2023/10/15 00:56:05;;;;;;;0.00;0.00;;;;;;;6.65;100.00;96053.38;1025500;28;20049;-78
2023/10/15 00:56:35;;;;;;;0.30;0.30;;;;;;;6.63;100.00;96052.03;1022602;29;20266;-77
2023/10/15 00:57:56;;;;;;;3.15;1.33;;;;;;;6.55;100.00;96048.75;1018632;29;20031;-77
2023/10/15 00:59:47;;;;;;;0.35;0.35;;;;;;;6.57;100.00;96046.72;1023859;28;20282;-77
2023/10/15 01:02:32;;;;;;;0.17;0.17;;;;;;;6.58;100.00;96050.13;1018177;29;20652;-76
2023/10/15 01:03:05;;;;;;;0.20;0.10;;;;;;;6.58;100.00;96052.72;1016496;29;20362;-78
2023/10/15 01:03:38;;;;;;;0.00;0.00;;;;;;;6.61;100.00;96047.03;1022766;29;20544;-75
2023/10/15 01:04:09;;;;;;;0.85;0.85;;;;;;;6.57;100.00;96045.91;1022772;29;20275;-77
2023/10/15 01:04:41;;;;;;;0.10;0.10;;;;;;;6.60;100.00;96054.06;1015510;29;20666;-76
2023/10/15 01:05:14;;;;;;;0.00;0.00;;;;;;;6.58;100.00;96045.69;1011009;29;20643;-76
2023/10/15 01:05:52;;;;;;;0.17;0.17;;;;;;;6.63;100.00;96049.41;1014991;29;20280;-77
2023/10/15 01:06:35;;;;;;;0.00;0.00;;;;;;;6.58;100.00;96055.31;1022486;29;20300;-77
2023/10/15 01:07:32;;;;;;;0.20;0.20;;;;;;;6.52;100.00;96053.63;1018075;29;20630;-77
2023/10/15 01:08:04;;;;;;;0.10;0.10;;;;;;;6.56;100.00;96065.19;1017692;29;20614;-77
2023/10/15 01:08:35;;;;;;;0.73;0.68;;;;;;;6.56;100.00;96054.75;1019969;29;20272;-78
2023/10/15 01:09:09;;;;;;;0.00;0.00;;;;;;;6.55;100.00;96056.56;1022660;29;20278;-77
2023/10/15 01:09:40;;;;;;;0.08;0.08;;;;;;;6.57;100.00;96059.75;1023817;28;20271;-77
2023/10/15 01:10:19;;;;;;;0.00;0.00;;;;;;;6.57;100.00;96056.31;1016293;29;20280;-77
2023/10/15 01:11:06;;;;;;;1.40;0.45;;;;;;;6.57;100.00;96056.31;1011993;29;20505;-78
2023/10/15 01:11:37;;;;;;;0.35;0.35;;;;;;;6.59;100.00;96054.28;1019223;29;20267;-77
2023/10/15 01:12:24;;;;;;;0.25;0.25;;;;;;;6.61;100.00;96052.25;1022506;29;20656;-76
2023/10/15 01:12:56;;;;;;;1.92;1.13;;;;;;;6.61;100.00;96047.84;1026312;28;20266;-77
2023/10/15 01:13:30;;;;;;;0.10;0.10;;;;;;;6.60;100.00;96045.44;1023195;28;20401;-78
2023/10/15 01:14:00;;;;;;;0.15;0.10;;;;;;;6.65;100.00;96045.56;1014961;29;21013;-77
2023/10/15 01:14:37;;;;;;;0.10;0.10;;;;;;;6.70;100.00;96050.06;1017752;29;20311;-75
2023/10/15 01:15:08;;;;;;;0.40;0.40;;;;;;;6.70;100.00;96056.06;1018690;29;20032;-76
2023/10/15 01:15:42;;;;;;;0.25;0.25;;;;;;;6.63;100.00;96039.78;1016223;29;20275;-77
2023/10/15 01:16:17;;;;;;;0.40;0.40;;;;;;;6.71;100.00;96049.88;1011007;29;20052;-77
2023/10/15 01:16:48;;;;;;;0.00;0.00;;;;;;;6.73;100.00;96050.41;1011782;29;20285;-76
2023/10/15 01:17:23;;;;;;;0.10;0.10;;;;;;;6.74;100.00;96049.41;1011985;29;20282;-76
2023/10/15 01:18:00;;;;;;;0.75;0.75;;;;;;;6.80;100.00;96051.06;1014908;29;20707;-77
2023/10/15 01:18:31;;;;;;;0.20;0.10;;;;;;;6.82;100.00;96048.25;1017908;29;20280;-77
2023/10/15 01:19:43;;;;;;;0.52;0.52;;;;;;;6.84;100.00;96047.00;1021783;29;20031;-77
2023/10/15 01:20:18;;;;;;;0.00;0.00;;;;;;;6.86;100.00;96044.16;1022623;29;20823;-77
2023/10/15 01:20:49;;;;;;;0.10;0.10;;;;;;;6.87;100.00;96048.34;1027161;28;20035;-77
2023/10/15 01:21:19;;;;;;;0.00;0.00;;;;;;;6.81;100.00;96026.59;1021653;29;20653;-76
2023/10/15 01:21:56;;;;;;;0.03;0.03;;;;;;;6.91;100.00;96046.88;1014431;29;20036;-76
2023/10/15 01:22:32;;;;;;;3.50;1.40;;;;;;;6.90;100.00;96040.03;1017991;29;20046;-77
2023/10/15 01:23:04;;;;;;;0.38;0.17;;;;;;;6.92;100.00;96047.66;1017843;29;20416;-77
2023/10/15 01:24:18;;;;;;;0.65;0.52;;;;;;;6.89;100.00;96040.28;1016950;29;20414;-75
2023/10/15 01:24:53;;;;;;;0.25;0.25;;;;;;;6.90;100.00;96029.63;1014915;29;20299;-76
2023/10/15 01:25:32;;;;;;;0.00;0.00;;;;;;;6.92;100.00;96032.00;1018148;29;20378;-76
2023/10/15 01:26:10;;;;;;;0.00;0.00;;;;;;;6.96;100.00;96033.13;1018854;29;20299;-76
2023/10/15 01:26:49;;;;;;;0.10;0.10;;;;;;;6.96;100.00;96022.69;1011328;29;20291;-77
2023/10/15 01:27:27;;;;;;;0.20;0.20;;;;;;;7.00;100.00;96029.81;1022649;29;20287;-77
2023/10/15 01:28:00;;;;;;;0.30;0.30;;;;;;;6.98;100.00;96026.66;1018613;29;20267;-77
2023/10/15 01:28:40;;;;;;;0.57;0.57;;;;;;;7.01;100.00;96030.63;1019872;29;20653;-77
2023/10/15 01:29:15;;;;;;;0.00;0.00;;;;;;;7.00;100.00;96027.19;1014753;29;20292;-76
2023/10/15 01:29:47;;;;;;;3.40;1.17;;;;;;;7.01;100.00;96033.22;1003111;29;20530;-77
2023/10/15 01:30:18;;;;;;;0.38;0.38;;;;;;;7.01;100.00;96025.41;1005437;29;20286;-78
2023/10/15 01:30:50;;;;;;;0.00;0.00;;;;;;;7.03;100.00;96036.38;1007139;29;20270;-77
2023/10/15 01:31:24;;;;;;;0.10;0.10;;;;;;;7.02;100.00;96027.78;1016681;29;20039;-77
2023/10/15 01:32:15;;;;;;;1.35;0.52;;;;;;;7.04;100.00;96030.13;1018517;29;20271;-76
2023/10/15 01:32:46;;;;;;;0.30;0.30;;;;;;;7.05;100.00;96036.97;1021878;29;20811;-77
2023/10/15 01:33:16;;;;;;;0.10;0.10;;;;;;;7.02;100.00;96022.56;1022805;29;20382;-77
2023/10/15 01:33:50;;;;;;;0.30;0.30;;;;;;;7.06;100.00;96039.31;1022389;28;20432;-77
2023/10/15 01:34:21;;;;;;;8.30;1.55;;;;;;;7.06;100.00;96028.09;1023041;29;20042;-77
2023/10/15 01:34:52;;;;;;;2.63;0.98;;;;;;;7.07;100.00;96033.06;1018041;29;20393;-77
2023/10/15 01:35:24;;;;;;;0.73;0.73;;;;;;;7.07;100.00;96027.06;1015591;29;20272;-77
2023/10/15 01:35:57;;;;;;;0.00;0.00;;;;;;;7.08;100.00;96029.44;1019078;29;21116;-78
2023/10/15 01:36:28;;;;;;;0.03;0.03;;;;;;;7.07;100.00;96024.44;1023463;28;20305;-77
2023/10/15 01:36:59;;;;;;;0.10;0.10;;;;;;;7.07;100.00;96024.44;1022612;29;20305;-77
2023/10/15 01:37:30;;;;;;;0.00;0.00;;;;;;;7.07;100.00;96025.25;1022693;29;20772;-77
2023/10/15 01:38:20;;;;;;;0.55;0.35;;;;;;;7.04;100.00;96020.50;1018254;29;20020;-76
2023/10/15 01:38:55;;;;;;;0.10;0.10;;;;;;;7.06;100.00;96030.69;1019150;29;20482;-75
2023/10/15 01:39:38;;;;;;;0.55;0.50;;;;;;;7.04;100.00;96025.72;1015346;29;20317;-76
2023/10/15 01:40:44;;;;;;;0.03;0.03;;;;;;;7.01;100.00;96018.38;1022592;29;20037;-77
2023/10/15 01:41:16;;;;;;;0.20;0.20;;;;;;;7.01;100.00;96020.19;1021747;29;20271;-76
2023/10/15 01:41:50;;;;;;;0.10;0.10;;;;;;;7.01;100.00;96020.19;1022636;29;20266;-76
2023/10/15 01:42:32;;;;;;;0.00;0.00;;;;;;;6.95;100.00;96013.28;1018405;29;20282;-76
2023/10/15 01:43:06;;;;;;;0.15;0.15;;;;;;;6.94;100.00;96006.47;1018673;29;20284;-76
2023/10/15 01:43:37;;;;;;;0.10;0.10;;;;;;;6.99;100.00;96022.22;1014956;29;20264;-76
2023/10/15 01:44:08;;;;;;;0.00;0.00;;;;;;;6.97;100.00;96016.44;1012793;29;20356;-77
2023/10/15 01:44:47;;;;;;;0.38;0.38;;;;;;;6.94;100.00;96016.91;1014536;29;20857;-76
2023/10/15 01:45:30;;;;;;;0.10;0.10;;;;;;;6.96;100.00;96013.03;1020690;29;20043;-77
2023/10/15 01:46:07;;;;;;;0.00;0.00;;;;;;;6.94;100.00;96009.06;1029779;28;20022;-76
2023/10/15 01:46:46;;;;;;;0.00;0.00;;;;;;;6.99;100.00;96006.56;1026800;28;20278;-78
2023/10/15 01:47:18;;;;;;;3.55;0.45;;;;;;;6.97;100.00;96011.22;1022524;28;20267;-76
2023/10/15 01:48:25;;;;;;;0.00;0.00;;;;;;;6.92;100.00;96005.91;1025112;28;20741;-77
2023/10/15 01:48:58;;;;;;;1.67;0.77;;;;;;;6.94;100.00;96017.72;1022501;29;20050;-77
2023/10/15 01:49:32;;;;;;;0.00;0.00;;;;;;;6.95;100.00;96027.13;1022760;29;20330;-78
2023/10/15 01:50:08;;;;;;;0.05;0.05;;;;;;;6.94;100.00;96024.72;1022623;29;20277;-76
2023/10/15 01:50:51;;;;;;;0.10;0.10;;;;;;;6.95;100.00;96031.53;1020302;28;20299;-76
2023/10/15 01:51:22;;;;;;;0.00;0.00;;;;;;;6.93;100.00;96028.38;1015530;29;20270;-77
2023/10/15 01:51:53;;;;;;;0.00;0.00;;;;;;;6.94;100.00;96024.72;1018955;29;20266;-76
2023/10/15 01:52:29;;;;;;;0.40;0.40;;;;;;;6.95;100.00;96021.91;1018318;29;20032;-77
2023/10/15 01:53:04;;;;;;;0.20;0.20;;;;;;;6.90;100.00;96015.78;1022571;29;20377;-76
2023/10/15 01:53:34;;;;;;;0.60;0.60;;;;;;;6.95;100.00;96021.91;1013514;29;20325;-76
2023/10/15 01:54:09;;;;;;;0.00;0.00;;;;;;;6.96;100.00;96012.25;1012057;29;20655;-76
2023/10/15 01:54:45;;;;;;;0.10;0.10;;;;;;;6.96;100.00;96018.25;1015897;29;20058;-78
2023/10/15 01:55:17;;;;;;;2.53;1.15;;;;;;;6.98;100.00;96005.00;1022620;29;20270;-77
2023/10/15 01:55:56;;;;;;;0.43;0.43;;;;;;;6.99;100.00;96009.19;1020523;29;20302;-76
2023/10/15 01:56:28;;;;;;;0.10;0.10;;;;;;;6.97;100.00;96009.41;1018640;29;20295;-77
2023/10/15 01:57:00;;;;;;;0.05;0.05;;;;;;;6.99;100.00;96012.56;1021826;28;20387;-76
2023/10/15 01:57:31;;;;;;;0.00;0.00;;;;;;;6.99;100.00;96004.75;1020564;29;20792;-76
2023/10/15 01:58:06;;;;;;;0.00;0.00;;;;;;;6.99;100.00;96004.75;1018207;29;20770;-76
2023/10/15 01:58:39;;;;;;;0.28;0.28;;;;;;;6.94;100.00;96001.25;1014865;29;20279;-76
2023/10/15 01:59:11;;;;;;;0.00;0.00;;;;;;;7.01;100.00;96004.53;1015986;29;20438;-77
2023/10/15 01:59:47;;;;;;;0.10;0.10;;;;;;;6.99;100.00;96004.75;1014512;29;20312;-76
2023/10/15 02:01:19;;;;;;;0.00;0.00;;;;;;;6.96;100.00;95999.22;1014617;29;21204;-76
2023/10/15 02:01:50;;;;;;;0.00;0.00;;;;;;;6.99;100.00;96007.34;1010975;29;20323;-77
2023/10/15 02:02:24;;;;;;;0.10;0.10;;;;;;;6.99;100.00;96001.34;1014796;29;20365;-77
2023/10/15 02:02:56;;;;;;;0.30;0.30;;;;;;;6.99;100.00;96003.97;1012933;29;20032;-76
2023/10/15 02:03:26;;;;;;;0.00;0.00;;;;;;;6.98;100.00;96002.38;1016146;29;20311;-77
2023/10/15 02:03:57;;;;;;;0.03;0.03;;;;;;;6.99;100.00;96006.56;1018442;29;20279;-76
2023/10/15 02:04:29;;;;;;;0.00;0.00;;;;;;;6.99;100.00;96009.19;1019917;28;20589;-77
2023/10/15 02:05:00;;;;;;;1.35;0.85;;;;;;;7.00;100.00;96011.53;1022252;28;20976;-77
2023/10/15 02:05:42;;;;;;;0.13;0.13;;;;;;;7.00;100.00;96008.16;1022592;29;20278;-76
2023/10/15 02:06:16;;;;;;;0.20;0.20;;;;;;;7.00;100.00;95995.09;1022466;29;20031;-76
2023/10/15 02:06:47;;;;;;;0.10;0.10;;;;;;;7.00;100.00;95995.88;1016333;29;20283;-76
2023/10/15 02:07:19;;;;;;;0.20;0.20;;;;;;;7.01;100.00;96000.09;1009180;29;20281;-75
2023/10/15 02:07:50;;;;;;;2.20;1.98;;;;;;;6.97;100.00;95985.91;1012213;29;20051;-78
2023/10/15 02:08:24;;;;;;;0.00;0.00;;;;;;;7.01;100.00;95988.88;1010605;29;20276;-76
2023/10/15 02:08:56;;;;;;;0.13;0.13;;;;;;;7.00;100.00;95992.50;1015494;29;20271;-77
2023/10/15 02:09:29;;;;;;;0.00;0.00;;;;;;;7.00;100.00;95997.72;1018767;29;20350;-76
2023/10/15 02:10:00;;;;;;;0.08;0.08;;;;;;;7.01;100.00;96004.53;1015793;29;20272;-76
2023/10/15 02:10:31;;;;;;;0.10;0.10;;;;;;;6.97;100.00;95992.97;1014780;29;20379;-77
2023/10/15 02:11:16;;;;;;;0.70;0.70;;;;;;;6.99;100.00;95996.13;1014930;29;20028;-75
2023/10/15 02:11:54;;;;;;;0.00;0.00;;;;;;;6.98;100.00;95997.16;1018001;29;20342;-77
2023/10/15 02:12:24;;;;;;;0.00;0.00;;;;;;;6.98;100.00;95995.34;1018444;29;20272;-77
2023/10/15 02:13:04;;;;;;;0.00;0.00;;;;;;;6.99;100.00;96001.34;1010625;29;20289;-77
2023/10/15 02:13:40;;;;;;;0.05;0.05;;;;;;;6.95;100.00;96000.25;1013297;29;20528;-77
2023/10/15 02:14:11;;;;;;;0.10;0.10;;;;;;;6.99;100.00;96002.16;1013808;29;20040;-77
2023/10/15 02:14:43;;;;;;;0.43;0.10;;;;;;;7.03;100.00;96002.47;1010806;29;20320;-77
2023/10/15 02:15:22;;;;;;;0.10;0.10;;;;;;;6.93;100.00;96005.69;1018457;29;20032;-76
2023/10/15 02:15:55;;;;;;;0.10;0.10;;;;;;;6.97;100.00;96013.81;1020032;29;20283;-76
2023/10/15 02:16:29;;;;;;;0.00;0.00;;;;;;;6.98;100.00;96007.59;1026368;28;20271;-77
2023/10/15 02:17:02;;;;;;;0.13;0.13;;;;;;;6.97;100.00;96008.59;1024537;28;20349;-77
2023/10/15 02:17:34;;;;;;;0.00;0.00;;;;;;;6.94;100.00;96006.47;1022366;29;20947;-76
2023/10/15 02:18:05;;;;;;;0.70;0.60;;;;;;;6.92;100.00;96006.72;1018735;29;20264;-77
2023/10/15 02:18:36;;;;;;;0.00;0.00;;;;;;;6.95;100.00;96000.25;1022305;29;20295;-76
2023/10/15 02:19:07;;;;;;;0.00;0.00;;;;;;;6.89;100.00;95991.53;1014600;29;20267;-76
2023/10/15 02:19:40;;;;;;;0.30;0.30;;;;;;;6.98;100.00;96007.59;1018493;29;20032;-76
2023/10/15 02:20:12;;;;;;;2.08;0.90;;;;;;;6.96;100.00;96000.00;1017760;29;20078;-77
2023/10/15 02:21:04;;;;;;;0.00;0.00;;;;;;;6.99;100.00;96006.56;1015664;29;20355;-77
2023/10/15 02:21:37;;;;;;;0.13;0.13;;;;;;;6.96;100.00;95999.22;1017946;29;20335;-77
2023/10/15 02:22:13;;;;;;;0.15;0.15;;;;;;;6.97;100.00;96003.41;1013952;29;20280;-77
2023/10/15 02:22:46;;;;;;;0.00;0.00;;;;;;;6.99;100.00;96002.16;1014370;29;20717;-78
2023/10/15 02:23:18;;;;;;;0.10;0.10;;;;;;;6.95;100.00;95995.03;1010876;29;20841;-76
2023/10/15 02:23:50;;;;;;;0.35;0.35;;;;;;;7.00;100.00;96002.94;1010694;29;20332;-77
2023/10/15 02:24:21;;;;;;;0.30;0.30;;;;;;;6.98;100.00;96002.38;1007154;29;20269;-75
2023/10/15 02:24:56;;;;;;;0.05;0.05;;;;;;;6.95;100.00;95990.59;1008013;29;20667;-75
2023/10/15 02:25:27;;;;;;;0.00;0.00;;;;;;;6.96;100.00;95991.38;1016694;29;20497;-77
2023/10/15 02:26:00;;;;;;;0.10;0.10;;;;;;;6.99;100.00;96009.97;1014442;29;20304;-76
2023/10/15 02:26:30;;;;;;;0.00;0.00;;;;;;;7.01;100.00;96004.53;1016067;29;20801;-77
2023/10/15 02:27:06;;;;;;;0.00;0.00;;;;;;;7.00;100.00;96003.72;1021786;28;20576;-75
2023/10/15 02:27:36;;;;;;;0.17;0.17;;;;;;;7.00;100.00;96005.53;1020565;29;20422;-77
2023/10/15 02:28:09;;;;;;;0.00;0.00;;;;;;;7.00;100.00;96005.53;1018381;29;20251;-78
2023/10/15 02:28:40;;;;;;;8.10;1.00;;;;;;;6.99;100.00;96006.56;1020259;29;20056;-76
2023/10/15 02:29:59;;;;;;;0.38;0.38;;;;;;;6.98;100.00;96005.78;1026123;28;20078;-77
2023/10/15 02:30:32;;;;;;;1.38;0.50;;;;;;;6.95;100.00;95995.03;1024012;28;20263;-76
2023/10/15 02:31:42;;;;;;;0.00;0.00;;;;;;;6.99;100.00;96006.56;1020371;29;20271;-76
2023/10/15 02:32:21;;;;;;;0.10;0.10;;;;;;;6.96;100.00;96007.03;1020761;28;20026;-77
2023/10/15 02:32:53;;;;;;;0.47;0.10;;;;;;;6.92;100.00;96003.31;1025364;28;20260;-75
2023/10/15 02:33:25;;;;;;;0.10;0.10;;;;;;;6.98;100.00;95999.78;1022822;28;20289;-76
2023/10/15 02:33:56;;;;;;;0.00;0.00;;;;;;;6.98;100.00;96005.78;1018769;29;20405;-76
2023/10/15 02:34:27;;;;;;;0.10;0.10;;;;;;;6.99;100.00;96001.34;1004401;29;20671;-76
2023/10/15 02:34:58;;;;;;;0.00;0.00;;;;;;;6.98;100.00;95997.16;1011800;29;20044;-77
2023/10/15 02:35:39;;;;;;;0.38;0.38;;;;;;;6.95;100.00;95995.81;1023840;29;20306;-77
2023/10/15 02:36:09;;;;;;;0.20;0.20;;;;;;;6.98;100.00;95999.78;1019856;29;20040;-76
2023/10/15 02:36:43;;;;;;;0.30;0.20;;;;;;;6.94;100.00;95996.84;1015830;29;20283;-77
2023/10/15 02:37:18;;;;;;;0.38;0.38;;;;;;;6.97;100.00;96001.56;1012017;29;20035;-76
2023/10/15 02:37:49;;;;;;;0.47;0.47;;;;;;;6.94;100.00;95998.63;1017048;29;20288;-77
2023/10/15 02:38:26;;;;;;;0.43;0.32;;;;;;;6.97;100.00;96003.41;1021182;29;20366;-77
2023/10/15 02:38:56;;;;;;;0.00;0.00;;;;;;;6.94;100.00;95996.03;1019828;29;20039;-77
2023/10/15 02:39:27;;;;;;;0.00;0.00;;;;;;;6.95;100.00;96011.47;1016784;29;20267;-76
2023/10/15 02:39:59;;;;;;;0.00;0.00;;;;;;;6.96;100.00;96005.22;1016073;29;20035;-77
2023/10/15 02:40:56;;;;;;;0.00;0.00;;;;;;;6.91;100.00;96006.94;1017605;29;20032;-77
2023/10/15 02:41:30;;;;;;;0.00;0.00;;;;;;;6.94;100.00;96003.84;1018881;29;20280;-76
2023/10/15 02:42:02;;;;;;;1.88;0.70;;;;;;;6.93;100.00;96007.50;1015673;29;20091;-75
2023/10/15 02:42:35;;;;;;;1.38;1.17;;;;;;;6.97;100.00;96013.81;1015347;29;20263;-78
2023/10/15 02:43:06;;;;;;;0.00;0.00;;;;;;;6.97;100.00;96013.81;1019810;29;20417;-77
2023/10/15 02:43:37;;;;;;;1.15;0.20;;;;;;;6.98;100.00;96015.44;1020489;29;20267;-78
2023/10/15 02:44:13;;;;;;;0.32;0.32;;;;;;;6.99;100.00;96014.41;1023442;29;20067;-76
2023/10/15 02:44:44;;;;;;;0.28;0.28;;;;;;;6.89;100.00;95998.56;1022764;29;20114;-77
2023/10/15 02:45:14;;;;;;;0.17;0.17;;;;;;;7.00;100.00;96016.75;1020809;29;20288;-77
2023/10/15 02:45:47;;;;;;;0.00;0.00;;;;;;;6.99;100.00;96019.63;1022641;29;20263;-76
2023/10/15 02:46:21;;;;;;;0.03;0.03;;;;;;;6.97;100.00;96013.81;1019789;29;20032;-76